<?xml version="1.0" encoding="UTF-8" standalone="no" ?>
<gpx xmlns="http://www.topografix.com/GPX/1/1" xmlns:xsi="http://www.w3.org/2001/XMLSchema-instance" xsi:schemaLocation="http://www.topografix.com/GPX/1/1 http://www.topografix.com/GPX/1/1/gpx.xsd" version="1.1" creator="VisuGPX - https://www.visugpx.com">
  <metadata>
    <name>parcours du 05042017</name>
    <desc><![CDATA[parcours repris du site openrruner]]></desc>
  </metadata>
  <trk>
    <name><![CDATA[OpenLayers.Feature.Vector_40615]]></name>
    <trkseg>
      <trkpt lat="45.63769" lon="4.38734">
        <ele>610</ele>
        <time>2017-04-05T13:22:47Z</time>
      </trkpt>
      <trkpt lat="45.63817" lon="4.38676">
        <ele>609</ele>
        <time>2017-04-05T13:24:47Z</time>
      </trkpt>
      <trkpt lat="45.63845" lon="4.38581">
        <ele>611</ele>
        <time>2017-04-05T13:26:47Z</time>
      </trkpt>
      <trkpt lat="45.63889" lon="4.38311">
        <ele>604</ele>
        <time>2017-04-05T13:28:47Z</time>
      </trkpt>
      <trkpt lat="45.63929" lon="4.38135">
        <ele>600</ele>
        <time>2017-04-05T13:30:47Z</time>
      </trkpt>
      <trkpt lat="45.63935" lon="4.38047">
        <ele>597</ele>
        <time>2017-04-05T13:32:47Z</time>
      </trkpt>
      <trkpt lat="45.64051" lon="4.37809">
        <ele>592</ele>
        <time>2017-04-05T13:34:47Z</time>
      </trkpt>
      <trkpt lat="45.64172" lon="4.37725">
        <ele>583</ele>
        <time>2017-04-05T13:36:47Z</time>
      </trkpt>
      <trkpt lat="45.64322" lon="4.37547">
        <ele>574</ele>
        <time>2017-04-05T13:38:47Z</time>
      </trkpt>
      <trkpt lat="45.64372" lon="4.37431">
        <ele>570</ele>
        <time>2017-04-05T13:40:47Z</time>
      </trkpt>
      <trkpt lat="45.64306" lon="4.37322">
        <ele>568</ele>
        <time>2017-04-05T13:42:47Z</time>
      </trkpt>
      <trkpt lat="45.64291" lon="4.37266">
        <ele>567</ele>
        <time>2017-04-05T13:44:47Z</time>
      </trkpt>
      <trkpt lat="45.64315" lon="4.37212">
        <ele>565</ele>
        <time>2017-04-05T13:46:47Z</time>
      </trkpt>
      <trkpt lat="45.64435" lon="4.36991">
        <ele>558</ele>
        <time>2017-04-05T13:48:47Z</time>
      </trkpt>
      <trkpt lat="45.64483" lon="4.36974">
        <ele>557</ele>
        <time>2017-04-05T13:50:47Z</time>
      </trkpt>
      <trkpt lat="45.64534" lon="4.3701">
        <ele>551</ele>
        <time>2017-04-05T13:52:47Z</time>
      </trkpt>
      <trkpt lat="45.64549" lon="4.3694">
        <ele>547</ele>
        <time>2017-04-05T13:54:47Z</time>
      </trkpt>
      <trkpt lat="45.64597" lon="4.37028">
        <ele>534</ele>
        <time>2017-04-05T13:56:47Z</time>
      </trkpt>
      <trkpt lat="45.64633" lon="4.37036">
        <ele>522</ele>
        <time>2017-04-05T13:58:47Z</time>
      </trkpt>
      <trkpt lat="45.64634" lon="4.36959">
        <ele>522</ele>
        <time>2017-04-05T14:00:47Z</time>
      </trkpt>
      <trkpt lat="45.64658" lon="4.37008">
        <ele>514</ele>
        <time>2017-04-05T14:02:47Z</time>
      </trkpt>
      <trkpt lat="45.64714" lon="4.36907">
        <ele>509</ele>
        <time>2017-04-05T14:04:47Z</time>
      </trkpt>
      <trkpt lat="45.64667" lon="4.36755">
        <ele>512</ele>
        <time>2017-04-05T14:06:47Z</time>
      </trkpt>
      <trkpt lat="45.64645" lon="4.36659">
        <ele>509</ele>
        <time>2017-04-05T14:08:47Z</time>
      </trkpt>
      <trkpt lat="45.64637" lon="4.36607">
        <ele>504</ele>
        <time>2017-04-05T14:10:47Z</time>
      </trkpt>
      <trkpt lat="45.64682" lon="4.36609">
        <ele>502</ele>
        <time>2017-04-05T14:12:47Z</time>
      </trkpt>
      <trkpt lat="45.64712" lon="4.36583">
        <ele>499</ele>
        <time>2017-04-05T14:14:47Z</time>
      </trkpt>
      <trkpt lat="45.64729" lon="4.36538">
        <ele>499</ele>
        <time>2017-04-05T14:16:47Z</time>
      </trkpt>
      <trkpt lat="45.64724" lon="4.36448">
        <ele>501</ele>
        <time>2017-04-05T14:18:47Z</time>
      </trkpt>
      <trkpt lat="45.64742" lon="4.36272">
        <ele>501</ele>
        <time>2017-04-05T14:20:47Z</time>
      </trkpt>
      <trkpt lat="45.64714" lon="4.3612">
        <ele>500</ele>
        <time>2017-04-05T14:22:47Z</time>
      </trkpt>
      <trkpt lat="45.6476" lon="4.36114">
        <ele>502</ele>
        <time>2017-04-05T14:24:47Z</time>
      </trkpt>
      <trkpt lat="45.64793" lon="4.36088">
        <ele>508</ele>
        <time>2017-04-05T14:26:47Z</time>
      </trkpt>
      <trkpt lat="45.64834" lon="4.36073">
        <ele>515</ele>
        <time>2017-04-05T14:28:47Z</time>
      </trkpt>
      <trkpt lat="45.64808" lon="4.36034">
        <ele>516</ele>
        <time>2017-04-05T14:30:47Z</time>
      </trkpt>
      <trkpt lat="45.64802" lon="4.35972">
        <ele>522</ele>
        <time>2017-04-05T14:32:47Z</time>
      </trkpt>
      <trkpt lat="45.64846" lon="4.35955">
        <ele>528</ele>
        <time>2017-04-05T14:34:47Z</time>
      </trkpt>
      <trkpt lat="45.64883" lon="4.35916">
        <ele>532</ele>
        <time>2017-04-05T14:36:47Z</time>
      </trkpt>
      <trkpt lat="45.64882" lon="4.35815">
        <ele>540</ele>
        <time>2017-04-05T14:38:47Z</time>
      </trkpt>
      <trkpt lat="45.64903" lon="4.3582">
        <ele>543</ele>
        <time>2017-04-05T14:40:47Z</time>
      </trkpt>
      <trkpt lat="45.64915" lon="4.35794">
        <ele>547</ele>
        <time>2017-04-05T14:42:47Z</time>
      </trkpt>
      <trkpt lat="45.64954" lon="4.3577">
        <ele>553</ele>
        <time>2017-04-05T14:44:47Z</time>
      </trkpt>
      <trkpt lat="45.65012" lon="4.35817">
        <ele>555</ele>
        <time>2017-04-05T14:46:47Z</time>
      </trkpt>
      <trkpt lat="45.6503" lon="4.35854">
        <ele>554</ele>
        <time>2017-04-05T14:48:47Z</time>
      </trkpt>
      <trkpt lat="45.65084" lon="4.35901">
        <ele>555</ele>
        <time>2017-04-05T14:50:47Z</time>
      </trkpt>
      <trkpt lat="45.65104" lon="4.35974">
        <ele>550</ele>
        <time>2017-04-05T14:52:47Z</time>
      </trkpt>
      <trkpt lat="45.652" lon="4.35989">
        <ele>559</ele>
        <time>2017-04-05T14:54:47Z</time>
      </trkpt>
      <trkpt lat="45.65285" lon="4.35944">
        <ele>578</ele>
        <time>2017-04-05T14:56:47Z</time>
      </trkpt>
      <trkpt lat="45.65339" lon="4.35948">
        <ele>581</ele>
        <time>2017-04-05T14:58:47Z</time>
      </trkpt>
      <trkpt lat="45.65359" lon="4.3588">
        <ele>594</ele>
        <time>2017-04-05T15:00:47Z</time>
      </trkpt>
      <trkpt lat="45.6539" lon="4.35839">
        <ele>603</ele>
        <time>2017-04-05T15:02:47Z</time>
      </trkpt>
      <trkpt lat="45.65444" lon="4.35824">
        <ele>609</ele>
        <time>2017-04-05T15:04:47Z</time>
      </trkpt>
      <trkpt lat="45.65504" lon="4.35845">
        <ele>611</ele>
        <time>2017-04-05T15:06:47Z</time>
      </trkpt>
      <trkpt lat="45.65554" lon="4.35918">
        <ele>614</ele>
        <time>2017-04-05T15:08:47Z</time>
      </trkpt>
      <trkpt lat="45.65602" lon="4.35899">
        <ele>618</ele>
        <time>2017-04-05T15:10:47Z</time>
      </trkpt>
      <trkpt lat="45.65641" lon="4.35768">
        <ele>614</ele>
        <time>2017-04-05T15:12:47Z</time>
      </trkpt>
      <trkpt lat="45.65729" lon="4.35796">
        <ele>613</ele>
        <time>2017-04-05T15:14:47Z</time>
      </trkpt>
      <trkpt lat="45.65779" lon="4.35785">
        <ele>612</ele>
        <time>2017-04-05T15:16:47Z</time>
      </trkpt>
      <trkpt lat="45.65824" lon="4.35749">
        <ele>613</ele>
        <time>2017-04-05T15:18:47Z</time>
      </trkpt>
      <trkpt lat="45.65894" lon="4.35693">
        <ele>607</ele>
        <time>2017-04-05T15:20:47Z</time>
      </trkpt>
      <trkpt lat="45.65981" lon="4.35661">
        <ele>600</ele>
        <time>2017-04-05T15:22:47Z</time>
      </trkpt>
      <trkpt lat="45.66086" lon="4.3565">
        <ele>589</ele>
        <time>2017-04-05T15:24:47Z</time>
      </trkpt>
      <trkpt lat="45.66156" lon="4.35727">
        <ele>589</ele>
        <time>2017-04-05T15:26:47Z</time>
      </trkpt>
      <trkpt lat="45.66189" lon="4.35689">
        <ele>585</ele>
        <time>2017-04-05T15:28:47Z</time>
      </trkpt>
      <trkpt lat="45.66246" lon="4.35534">
        <ele>592</ele>
        <time>2017-04-05T15:30:47Z</time>
      </trkpt>
      <trkpt lat="45.66228" lon="4.35511">
        <ele>593</ele>
        <time>2017-04-05T15:32:47Z</time>
      </trkpt>
      <trkpt lat="45.66201" lon="4.35508">
        <ele>593</ele>
        <time>2017-04-05T15:34:47Z</time>
      </trkpt>
      <trkpt lat="45.66144" lon="4.35478">
        <ele>594</ele>
        <time>2017-04-05T15:36:47Z</time>
      </trkpt>
      <trkpt lat="45.66093" lon="4.35365">
        <ele>607</ele>
        <time>2017-04-05T15:38:47Z</time>
      </trkpt>
      <trkpt lat="45.66062" lon="4.35307">
        <ele>610</ele>
        <time>2017-04-05T15:40:47Z</time>
      </trkpt>
      <trkpt lat="45.66047" lon="4.35238">
        <ele>614</ele>
        <time>2017-04-05T15:42:47Z</time>
      </trkpt>
      <trkpt lat="45.6604" lon="4.35146">
        <ele>615</ele>
        <time>2017-04-05T15:44:47Z</time>
      </trkpt>
      <trkpt lat="45.66019" lon="4.35157">
        <ele>613</ele>
        <time>2017-04-05T15:46:47Z</time>
      </trkpt>
      <trkpt lat="45.66005" lon="4.35122">
        <ele>611</ele>
        <time>2017-04-05T15:48:47Z</time>
      </trkpt>
      <trkpt lat="45.65993" lon="4.35066">
        <ele>609</ele>
        <time>2017-04-05T15:50:47Z</time>
      </trkpt>
      <trkpt lat="45.65927" lon="4.35011">
        <ele>602</ele>
        <time>2017-04-05T15:52:47Z</time>
      </trkpt>
      <trkpt lat="45.65876" lon="4.34942">
        <ele>595</ele>
        <time>2017-04-05T15:54:47Z</time>
      </trkpt>
      <trkpt lat="45.65855" lon="4.34946">
        <ele>593</ele>
        <time>2017-04-05T15:56:47Z</time>
      </trkpt>
      <trkpt lat="45.65848" lon="4.348">
        <ele>578</ele>
        <time>2017-04-05T15:58:47Z</time>
      </trkpt>
      <trkpt lat="45.65857" lon="4.34708">
        <ele>566</ele>
        <time>2017-04-05T16:00:47Z</time>
      </trkpt>
      <trkpt lat="45.65801" lon="4.34614">
        <ele>552</ele>
        <time>2017-04-05T16:02:47Z</time>
      </trkpt>
      <trkpt lat="45.65717" lon="4.34586">
        <ele>542</ele>
        <time>2017-04-05T16:04:47Z</time>
      </trkpt>
      <trkpt lat="45.65669" lon="4.34571">
        <ele>536</ele>
        <time>2017-04-05T16:06:47Z</time>
      </trkpt>
      <trkpt lat="45.65599" lon="4.34489">
        <ele>532</ele>
        <time>2017-04-05T16:08:47Z</time>
      </trkpt>
      <trkpt lat="45.65551" lon="4.34474">
        <ele>530</ele>
        <time>2017-04-05T16:10:47Z</time>
      </trkpt>
      <trkpt lat="45.65524" lon="4.34423">
        <ele>530</ele>
        <time>2017-04-05T16:12:47Z</time>
      </trkpt>
      <trkpt lat="45.65444" lon="4.34382">
        <ele>529</ele>
        <time>2017-04-05T16:14:47Z</time>
      </trkpt>
      <trkpt lat="45.65365" lon="4.343">
        <ele>535</ele>
        <time>2017-04-05T16:16:47Z</time>
      </trkpt>
      <trkpt lat="45.65326" lon="4.34285">
        <ele>531</ele>
        <time>2017-04-05T16:18:47Z</time>
      </trkpt>
      <trkpt lat="45.65302" lon="4.34217">
        <ele>539</ele>
        <time>2017-04-05T16:20:47Z</time>
      </trkpt>
      <trkpt lat="45.6529" lon="4.34163">
        <ele>546</ele>
        <time>2017-04-05T16:22:47Z</time>
      </trkpt>
      <trkpt lat="45.65255" lon="4.34122">
        <ele>545</ele>
        <time>2017-04-05T16:24:47Z</time>
      </trkpt>
      <trkpt lat="45.65191" lon="4.34082">
        <ele>546</ele>
        <time>2017-04-05T16:26:47Z</time>
      </trkpt>
      <trkpt lat="45.65141" lon="4.3397">
        <ele>557</ele>
        <time>2017-04-05T16:28:47Z</time>
      </trkpt>
      <trkpt lat="45.65075" lon="4.33921">
        <ele>559</ele>
        <time>2017-04-05T16:30:47Z</time>
      </trkpt>
      <trkpt lat="45.65042" lon="4.33891">
        <ele>559</ele>
        <time>2017-04-05T16:32:47Z</time>
      </trkpt>
      <trkpt lat="45.65" lon="4.3388">
        <ele>558</ele>
        <time>2017-04-05T16:34:47Z</time>
      </trkpt>
      <trkpt lat="45.64945" lon="4.33888">
        <ele>558</ele>
        <time>2017-04-05T16:36:47Z</time>
      </trkpt>
      <trkpt lat="45.64882" lon="4.3397">
        <ele>557</ele>
        <time>2017-04-05T16:38:47Z</time>
      </trkpt>
      <trkpt lat="45.64861" lon="4.34227">
        <ele>535</ele>
        <time>2017-04-05T16:40:47Z</time>
      </trkpt>
      <trkpt lat="45.64793" lon="4.34294">
        <ele>528</ele>
        <time>2017-04-05T16:42:47Z</time>
      </trkpt>
      <trkpt lat="45.64762" lon="4.34386">
        <ele>518</ele>
        <time>2017-04-05T16:44:47Z</time>
      </trkpt>
      <trkpt lat="45.64747" lon="4.34448">
        <ele>508</ele>
        <time>2017-04-05T16:46:47Z</time>
      </trkpt>
      <trkpt lat="45.64697" lon="4.34476">
        <ele>499</ele>
        <time>2017-04-05T16:48:47Z</time>
      </trkpt>
      <trkpt lat="45.64657" lon="4.34466">
        <ele>495</ele>
        <time>2017-04-05T16:50:47Z</time>
      </trkpt>
      <trkpt lat="45.64631" lon="4.34418">
        <ele>491</ele>
        <time>2017-04-05T16:52:47Z</time>
      </trkpt>
      <trkpt lat="45.64622" lon="4.34526">
        <ele>478</ele>
        <time>2017-04-05T16:54:47Z</time>
      </trkpt>
      <trkpt lat="45.6458" lon="4.34521">
        <ele>468</ele>
        <time>2017-04-05T16:56:47Z</time>
      </trkpt>
      <trkpt lat="45.64547" lon="4.34496">
        <ele>466</ele>
        <time>2017-04-05T16:58:47Z</time>
      </trkpt>
      <trkpt lat="45.64543" lon="4.34436">
        <ele>466</ele>
        <time>2017-04-05T17:00:47Z</time>
      </trkpt>
      <trkpt lat="45.64507" lon="4.34457">
        <ele>461</ele>
        <time>2017-04-05T17:02:47Z</time>
      </trkpt>
      <trkpt lat="45.64483" lon="4.34457">
        <ele>465</ele>
        <time>2017-04-05T17:04:47Z</time>
      </trkpt>
      <trkpt lat="45.64429" lon="4.34403">
        <ele>475</ele>
        <time>2017-04-05T17:06:47Z</time>
      </trkpt>
      <trkpt lat="45.64372" lon="4.3426">
        <ele>475</ele>
        <time>2017-04-05T17:08:47Z</time>
      </trkpt>
      <trkpt lat="45.64333" lon="4.34148">
        <ele>467</ele>
        <time>2017-04-05T17:10:47Z</time>
      </trkpt>
      <trkpt lat="45.64316" lon="4.34069">
        <ele>466</ele>
        <time>2017-04-05T17:12:47Z</time>
      </trkpt>
      <trkpt lat="45.64313" lon="4.33925">
        <ele>462</ele>
        <time>2017-04-05T17:14:47Z</time>
      </trkpt>
      <trkpt lat="45.64315" lon="4.337">
        <ele>472</ele>
        <time>2017-04-05T17:16:47Z</time>
      </trkpt>
      <trkpt lat="45.64399" lon="4.33433">
        <ele>461</ele>
        <time>2017-04-05T17:18:47Z</time>
      </trkpt>
      <trkpt lat="45.64345" lon="4.33489">
        <ele>472</ele>
        <time>2017-04-05T17:20:47Z</time>
      </trkpt>
      <trkpt lat="45.643" lon="4.33461">
        <ele>488</ele>
        <time>2017-04-05T17:22:47Z</time>
      </trkpt>
      <trkpt lat="45.64301" lon="4.33429">
        <ele>489</ele>
        <time>2017-04-05T17:24:47Z</time>
      </trkpt>
      <trkpt lat="45.64273" lon="4.33444">
        <ele>497</ele>
        <time>2017-04-05T17:26:47Z</time>
      </trkpt>
      <trkpt lat="45.64262" lon="4.33418">
        <ele>501</ele>
        <time>2017-04-05T17:28:47Z</time>
      </trkpt>
      <trkpt lat="45.64234" lon="4.33436">
        <ele>507</ele>
        <time>2017-04-05T17:30:47Z</time>
      </trkpt>
      <trkpt lat="45.64217" lon="4.33436">
        <ele>510</ele>
        <time>2017-04-05T17:32:47Z</time>
      </trkpt>
      <trkpt lat="45.64186" lon="4.33496">
        <ele>514</ele>
        <time>2017-04-05T17:34:47Z</time>
      </trkpt>
      <trkpt lat="45.64165" lon="4.33547">
        <ele>516</ele>
        <time>2017-04-05T17:36:47Z</time>
      </trkpt>
      <trkpt lat="45.64091" lon="4.33556">
        <ele>525</ele>
        <time>2017-04-05T17:38:47Z</time>
      </trkpt>
      <trkpt lat="45.64069" lon="4.33543">
        <ele>526</ele>
        <time>2017-04-05T17:40:47Z</time>
      </trkpt>
      <trkpt lat="45.64024" lon="4.3338">
        <ele>538</ele>
        <time>2017-04-05T17:42:47Z</time>
      </trkpt>
      <trkpt lat="45.63997" lon="4.33241">
        <ele>551</ele>
        <time>2017-04-05T17:44:47Z</time>
      </trkpt>
      <trkpt lat="45.63931" lon="4.3319">
        <ele>555</ele>
        <time>2017-04-05T17:46:47Z</time>
      </trkpt>
      <trkpt lat="45.63889" lon="4.33194">
        <ele>556</ele>
        <time>2017-04-05T17:48:47Z</time>
      </trkpt>
      <trkpt lat="45.63832" lon="4.33173">
        <ele>564</ele>
        <time>2017-04-05T17:50:47Z</time>
      </trkpt>
      <trkpt lat="45.6366" lon="4.33173">
        <ele>570</ele>
        <time>2017-04-05T17:52:47Z</time>
      </trkpt>
      <trkpt lat="45.63513" lon="4.33126">
        <ele>574</ele>
        <time>2017-04-05T17:54:47Z</time>
      </trkpt>
      <trkpt lat="45.6336" lon="4.33087">
        <ele>570</ele>
        <time>2017-04-05T17:56:47Z</time>
      </trkpt>
      <trkpt lat="45.63348" lon="4.33177">
        <ele>567</ele>
        <time>2017-04-05T17:58:47Z</time>
      </trkpt>
      <trkpt lat="45.63249" lon="4.33134">
        <ele>560</ele>
        <time>2017-04-05T18:00:47Z</time>
      </trkpt>
      <trkpt lat="45.63198" lon="4.33074">
        <ele>556</ele>
        <time>2017-04-05T18:02:47Z</time>
      </trkpt>
      <trkpt lat="45.63204" lon="4.32993">
        <ele>559</ele>
        <time>2017-04-05T18:04:47Z</time>
      </trkpt>
      <trkpt lat="45.63162" lon="4.32902">
        <ele>550</ele>
        <time>2017-04-05T18:06:47Z</time>
      </trkpt>
      <trkpt lat="45.63102" lon="4.32881">
        <ele>539</ele>
        <time>2017-04-05T18:08:47Z</time>
      </trkpt>
      <trkpt lat="45.63066" lon="4.32804">
        <ele>527</ele>
        <time>2017-04-05T18:10:47Z</time>
      </trkpt>
      <trkpt lat="45.63084" lon="4.32731">
        <ele>523</ele>
        <time>2017-04-05T18:12:47Z</time>
      </trkpt>
      <trkpt lat="45.63123" lon="4.32684">
        <ele>529</ele>
        <time>2017-04-05T18:14:47Z</time>
      </trkpt>
      <trkpt lat="45.6297" lon="4.32619">
        <ele>501</ele>
        <time>2017-04-05T18:16:47Z</time>
      </trkpt>
      <trkpt lat="45.62907" lon="4.32623">
        <ele>492</ele>
        <time>2017-04-05T18:18:47Z</time>
      </trkpt>
      <trkpt lat="45.62847" lon="4.32606">
        <ele>488</ele>
        <time>2017-04-05T18:20:47Z</time>
      </trkpt>
      <trkpt lat="45.62682" lon="4.32469">
        <ele>473</ele>
        <time>2017-04-05T18:22:47Z</time>
      </trkpt>
      <trkpt lat="45.62724" lon="4.32323">
        <ele>471</ele>
        <time>2017-04-05T18:24:47Z</time>
      </trkpt>
      <trkpt lat="45.62706" lon="4.32147">
        <ele>461</ele>
        <time>2017-04-05T18:26:47Z</time>
      </trkpt>
      <trkpt lat="45.62694" lon="4.31804">
        <ele>447</ele>
        <time>2017-04-05T18:28:47Z</time>
      </trkpt>
      <trkpt lat="45.62676" lon="4.31465">
        <ele>442</ele>
        <time>2017-04-05T18:30:47Z</time>
      </trkpt>
      <trkpt lat="45.62667" lon="4.31353">
        <ele>435</ele>
        <time>2017-04-05T18:32:47Z</time>
      </trkpt>
      <trkpt lat="45.62655" lon="4.31267">
        <ele>435</ele>
        <time>2017-04-05T18:34:47Z</time>
      </trkpt>
      <trkpt lat="45.6267" lon="4.31169">
        <ele>430</ele>
        <time>2017-04-05T18:36:47Z</time>
      </trkpt>
      <trkpt lat="45.6282" lon="4.31006">
        <ele>433</ele>
        <time>2017-04-05T18:38:47Z</time>
      </trkpt>
      <trkpt lat="45.62817" lon="4.3086">
        <ele>425</ele>
        <time>2017-04-05T18:40:47Z</time>
      </trkpt>
      <trkpt lat="45.62787" lon="4.30804">
        <ele>421</ele>
        <time>2017-04-05T18:42:47Z</time>
      </trkpt>
      <trkpt lat="45.62751" lon="4.3077">
        <ele>417</ele>
        <time>2017-04-05T18:44:47Z</time>
      </trkpt>
      <trkpt lat="45.62718" lon="4.30782">
        <ele>417</ele>
        <time>2017-04-05T18:46:47Z</time>
      </trkpt>
      <trkpt lat="45.62685" lon="4.30825">
        <ele>423</ele>
        <time>2017-04-05T18:48:47Z</time>
      </trkpt>
      <trkpt lat="45.62544" lon="4.30868">
        <ele>419</ele>
        <time>2017-04-05T18:50:47Z</time>
      </trkpt>
      <trkpt lat="45.62511" lon="4.31036">
        <ele>432</ele>
        <time>2017-04-05T18:52:47Z</time>
      </trkpt>
      <trkpt lat="45.62451" lon="4.31109">
        <ele>429</ele>
        <time>2017-04-05T18:54:47Z</time>
      </trkpt>
      <trkpt lat="45.62388" lon="4.31087">
        <ele>423</ele>
        <time>2017-04-05T18:56:47Z</time>
      </trkpt>
      <trkpt lat="45.62241" lon="4.31104">
        <ele>427</ele>
        <time>2017-04-05T18:58:47Z</time>
      </trkpt>
      <trkpt lat="45.62169" lon="4.31126">
        <ele>429</ele>
        <time>2017-04-05T19:00:47Z</time>
      </trkpt>
      <trkpt lat="45.61659" lon="4.31289">
        <ele>421</ele>
        <time>2017-04-05T19:02:47Z</time>
      </trkpt>
      <trkpt lat="45.61584" lon="4.31276">
        <ele>417</ele>
        <time>2017-04-05T19:04:47Z</time>
      </trkpt>
      <trkpt lat="45.61548" lon="4.31267">
        <ele>417</ele>
        <time>2017-04-05T19:06:47Z</time>
      </trkpt>
      <trkpt lat="45.61512" lon="4.31212">
        <ele>412</ele>
        <time>2017-04-05T19:08:47Z</time>
      </trkpt>
      <trkpt lat="45.61452" lon="4.31203">
        <ele>411</ele>
        <time>2017-04-05T19:10:47Z</time>
      </trkpt>
      <trkpt lat="45.61337" lon="4.31233">
        <ele>412</ele>
        <time>2017-04-05T19:12:47Z</time>
      </trkpt>
      <trkpt lat="45.61193" lon="4.31224">
        <ele>408</ele>
        <time>2017-04-05T19:14:47Z</time>
      </trkpt>
      <trkpt lat="45.61307" lon="4.31469">
        <ele>430</ele>
        <time>2017-04-05T19:16:47Z</time>
      </trkpt>
      <trkpt lat="45.61365" lon="4.31486">
        <ele>436</ele>
        <time>2017-04-05T19:18:47Z</time>
      </trkpt>
      <trkpt lat="45.61386" lon="4.31624">
        <ele>443</ele>
        <time>2017-04-05T19:20:47Z</time>
      </trkpt>
      <trkpt lat="45.61431" lon="4.31769">
        <ele>455</ele>
        <time>2017-04-05T19:22:47Z</time>
      </trkpt>
      <trkpt lat="45.61437" lon="4.31847">
        <ele>461</ele>
        <time>2017-04-05T19:24:47Z</time>
      </trkpt>
      <trkpt lat="45.61455" lon="4.31915">
        <ele>464</ele>
        <time>2017-04-05T19:26:47Z</time>
      </trkpt>
      <trkpt lat="45.61665" lon="4.31993">
        <ele>463</ele>
        <time>2017-04-05T19:28:47Z</time>
      </trkpt>
      <trkpt lat="45.6171" lon="4.3204">
        <ele>466</ele>
        <time>2017-04-05T19:30:47Z</time>
      </trkpt>
      <trkpt lat="45.61746" lon="4.31984">
        <ele>466</ele>
        <time>2017-04-05T19:32:47Z</time>
      </trkpt>
      <trkpt lat="45.61806" lon="4.31975">
        <ele>476</ele>
        <time>2017-04-05T19:34:47Z</time>
      </trkpt>
      <trkpt lat="45.61854" lon="4.32048">
        <ele>480</ele>
        <time>2017-04-05T19:36:47Z</time>
      </trkpt>
      <trkpt lat="45.61794" lon="4.32267">
        <ele>486</ele>
        <time>2017-04-05T19:38:47Z</time>
      </trkpt>
      <trkpt lat="45.61836" lon="4.32297">
        <ele>485</ele>
        <time>2017-04-05T19:40:47Z</time>
      </trkpt>
      <trkpt lat="45.6195" lon="4.32323">
        <ele>480</ele>
        <time>2017-04-05T19:42:47Z</time>
      </trkpt>
      <trkpt lat="45.62037" lon="4.32297">
        <ele>472</ele>
        <time>2017-04-05T19:44:47Z</time>
      </trkpt>
      <trkpt lat="45.62088" lon="4.32314">
        <ele>470</ele>
        <time>2017-04-05T19:46:47Z</time>
      </trkpt>
      <trkpt lat="45.62124" lon="4.32387">
        <ele>476</ele>
        <time>2017-04-05T19:48:47Z</time>
      </trkpt>
      <trkpt lat="45.62172" lon="4.32366">
        <ele>478</ele>
        <time>2017-04-05T19:50:47Z</time>
      </trkpt>
      <trkpt lat="45.62214" lon="4.32366">
        <ele>484</ele>
        <time>2017-04-05T19:52:47Z</time>
      </trkpt>
      <trkpt lat="45.62298" lon="4.32349">
        <ele>494</ele>
        <time>2017-04-05T19:54:47Z</time>
      </trkpt>
      <trkpt lat="45.62364" lon="4.32387">
        <ele>503</ele>
        <time>2017-04-05T19:56:47Z</time>
      </trkpt>
      <trkpt lat="45.62397" lon="4.32478">
        <ele>513</ele>
        <time>2017-04-05T19:58:47Z</time>
      </trkpt>
      <trkpt lat="45.62358" lon="4.32593">
        <ele>515</ele>
        <time>2017-04-05T20:00:47Z</time>
      </trkpt>
      <trkpt lat="45.62265" lon="4.32735">
        <ele>521</ele>
        <time>2017-04-05T20:02:47Z</time>
      </trkpt>
      <trkpt lat="45.624" lon="4.32795">
        <ele>527</ele>
        <time>2017-04-05T20:04:47Z</time>
      </trkpt>
      <trkpt lat="45.62442" lon="4.32752">
        <ele>523</ele>
        <time>2017-04-05T20:06:47Z</time>
      </trkpt>
      <trkpt lat="45.62511" lon="4.32774">
        <ele>514</ele>
        <time>2017-04-05T20:08:47Z</time>
      </trkpt>
      <trkpt lat="45.62553" lon="4.32731">
        <ele>504</ele>
        <time>2017-04-05T20:10:47Z</time>
      </trkpt>
      <trkpt lat="45.62517" lon="4.32696">
        <ele>512</ele>
        <time>2017-04-05T20:12:47Z</time>
      </trkpt>
      <trkpt lat="45.62622" lon="4.32653">
        <ele>488</ele>
        <time>2017-04-05T20:14:47Z</time>
      </trkpt>
      <trkpt lat="45.62667" lon="4.32684">
        <ele>482</ele>
        <time>2017-04-05T20:16:47Z</time>
      </trkpt>
      <trkpt lat="45.62646" lon="4.32748">
        <ele>490</ele>
        <time>2017-04-05T20:18:47Z</time>
      </trkpt>
      <trkpt lat="45.62613" lon="4.32795">
        <ele>496</ele>
        <time>2017-04-05T20:20:47Z</time>
      </trkpt>
      <trkpt lat="45.62568" lon="4.32881">
        <ele>498</ele>
        <time>2017-04-05T20:22:47Z</time>
      </trkpt>
      <trkpt lat="45.62505" lon="4.32962">
        <ele>508</ele>
        <time>2017-04-05T20:24:47Z</time>
      </trkpt>
      <trkpt lat="45.62457" lon="4.33018">
        <ele>511</ele>
        <time>2017-04-05T20:26:47Z</time>
      </trkpt>
      <trkpt lat="45.62427" lon="4.33065">
        <ele>512</ele>
        <time>2017-04-05T20:28:47Z</time>
      </trkpt>
      <trkpt lat="45.62397" lon="4.33121">
        <ele>515</ele>
        <time>2017-04-05T20:30:47Z</time>
      </trkpt>
      <trkpt lat="45.62373" lon="4.33302">
        <ele>527</ele>
        <time>2017-04-05T20:32:47Z</time>
      </trkpt>
      <trkpt lat="45.62169" lon="4.33327">
        <ele>536</ele>
        <time>2017-04-05T20:34:47Z</time>
      </trkpt>
      <trkpt lat="45.62289" lon="4.33628">
        <ele>538</ele>
        <time>2017-04-05T20:36:47Z</time>
      </trkpt>
      <trkpt lat="45.62469" lon="4.34121">
        <ele>551</ele>
        <time>2017-04-05T20:38:47Z</time>
      </trkpt>
      <trkpt lat="45.62571" lon="4.34306">
        <ele>560</ele>
        <time>2017-04-05T20:40:47Z</time>
      </trkpt>
      <trkpt lat="45.62682" lon="4.34173">
        <ele>557</ele>
        <time>2017-04-05T20:42:47Z</time>
      </trkpt>
      <trkpt lat="45.62886" lon="4.34121">
        <ele>549</ele>
        <time>2017-04-05T20:44:47Z</time>
      </trkpt>
      <trkpt lat="45.62838" lon="4.34606">
        <ele>559</ele>
        <time>2017-04-05T20:46:47Z</time>
      </trkpt>
      <trkpt lat="45.62832" lon="4.34919">
        <ele>560</ele>
        <time>2017-04-05T20:48:47Z</time>
      </trkpt>
      <trkpt lat="45.62868" lon="4.35113">
        <ele>565</ele>
        <time>2017-04-05T20:50:47Z</time>
      </trkpt>
      <trkpt lat="45.62757" lon="4.35576">
        <ele>565</ele>
        <time>2017-04-05T20:52:47Z</time>
      </trkpt>
      <trkpt lat="45.62748" lon="4.35722">
        <ele>559</ele>
        <time>2017-04-05T20:54:47Z</time>
      </trkpt>
      <trkpt lat="45.63141" lon="4.35559">
        <ele>577</ele>
        <time>2017-04-05T20:56:47Z</time>
      </trkpt>
      <trkpt lat="45.63174" lon="4.35507">
        <ele>579</ele>
        <time>2017-04-05T20:58:47Z</time>
      </trkpt>
      <trkpt lat="45.63381" lon="4.35507">
        <ele>582</ele>
        <time>2017-04-05T21:00:47Z</time>
      </trkpt>
      <trkpt lat="45.63696" lon="4.35439">
        <ele>583</ele>
        <time>2017-04-05T21:02:47Z</time>
      </trkpt>
      <trkpt lat="45.63657" lon="4.35658">
        <ele>578</ele>
        <time>2017-04-05T21:04:47Z</time>
      </trkpt>
      <trkpt lat="45.63591" lon="4.35876">
        <ele>563</ele>
        <time>2017-04-05T21:06:47Z</time>
      </trkpt>
      <trkpt lat="45.63555" lon="4.3613">
        <ele>558</ele>
        <time>2017-04-05T21:08:47Z</time>
      </trkpt>
      <trkpt lat="45.63579" lon="4.36224">
        <ele>558</ele>
        <time>2017-04-05T21:10:47Z</time>
      </trkpt>
      <trkpt lat="45.63745" lon="4.36357">
        <ele>572</ele>
        <time>2017-04-05T21:12:47Z</time>
      </trkpt>
      <trkpt lat="45.63745" lon="4.36357">
        <ele>571</ele>
      </trkpt>
      <trkpt lat="45.63881" lon="4.3645">
        <ele>578</ele>
      </trkpt>
      <trkpt lat="45.63881" lon="4.3645">
        <ele>578</ele>
      </trkpt>
      <trkpt lat="45.63983" lon="4.36354">
        <ele>578</ele>
      </trkpt>
      <trkpt lat="45.64063" lon="4.36343">
        <ele>578</ele>
      </trkpt>
      <trkpt lat="45.64213" lon="4.36321">
        <ele>575</ele>
      </trkpt>
      <trkpt lat="45.64285" lon="4.36418">
        <ele>569</ele>
      </trkpt>
      <trkpt lat="45.64391" lon="4.36429">
        <ele>544</ele>
      </trkpt>
      <trkpt lat="45.64501" lon="4.36343">
        <ele>540</ele>
      </trkpt>
      <trkpt lat="45.64552" lon="4.36407">
        <ele>518</ele>
      </trkpt>
      <trkpt lat="45.64628" lon="4.36315">
        <ele>506</ele>
      </trkpt>
      <trkpt lat="45.64646" lon="4.36454">
        <ele>500</ele>
      </trkpt>
      <trkpt lat="45.64637" lon="4.36579">
        <ele>500</ele>
      </trkpt>
      <trkpt lat="45.6475" lon="4.3653">
        <ele>499</ele>
      </trkpt>
      <trkpt lat="45.64756" lon="4.36588">
        <ele>499</ele>
      </trkpt>
      <trkpt lat="45.64757" lon="4.36628">
        <ele>501</ele>
      </trkpt>
      <trkpt lat="45.64823" lon="4.36729">
        <ele>513</ele>
      </trkpt>
      <trkpt lat="45.6479" lon="4.36776">
        <ele>505</ele>
      </trkpt>
      <trkpt lat="45.64822" lon="4.36854">
        <ele>519</ele>
      </trkpt>
      <trkpt lat="45.64945" lon="4.36976">
        <ele>533</ele>
      </trkpt>
      <trkpt lat="45.64948" lon="4.3704">
        <ele>533</ele>
      </trkpt>
      <trkpt lat="45.64907" lon="4.37148">
        <ele>535</ele>
      </trkpt>
      <trkpt lat="45.64978" lon="4.37525">
        <ele>544</ele>
      </trkpt>
      <trkpt lat="45.6502" lon="4.37557">
        <ele>538</ele>
      </trkpt>
      <trkpt lat="45.65027" lon="4.37695">
        <ele>533</ele>
      </trkpt>
      <trkpt lat="45.64988" lon="4.3774">
        <ele>530</ele>
      </trkpt>
      <trkpt lat="45.64985" lon="4.37787">
        <ele>530</ele>
      </trkpt>
      <trkpt lat="45.64945" lon="4.3769">
        <ele>521</ele>
      </trkpt>
      <trkpt lat="45.64912" lon="4.37738">
        <ele>524</ele>
      </trkpt>
      <trkpt lat="45.64694" lon="4.37875">
        <ele>545</ele>
      </trkpt>
      <trkpt lat="45.64588" lon="4.38045">
        <ele>550</ele>
      </trkpt>
      <trkpt lat="45.6449" lon="4.38156">
        <ele>553</ele>
      </trkpt>
      <trkpt lat="45.64379" lon="4.38472">
        <ele>576</ele>
      </trkpt>
      <trkpt lat="45.64346" lon="4.38444">
        <ele>577</ele>
      </trkpt>
      <trkpt lat="45.64375" lon="4.38308">
        <ele>581</ele>
      </trkpt>
      <trkpt lat="45.64337" lon="4.38287">
        <ele>577</ele>
      </trkpt>
      <trkpt lat="45.64306" lon="4.38332">
        <ele>581</ele>
      </trkpt>
      <trkpt lat="45.64111" lon="4.38321">
        <ele>597</ele>
      </trkpt>
      <trkpt lat="45.64108" lon="4.38257">
        <ele>590</ele>
      </trkpt>
      <trkpt lat="45.6409" lon="4.38255">
        <ele>590</ele>
      </trkpt>
      <trkpt lat="45.64082" lon="4.38358">
        <ele>597</ele>
      </trkpt>
      <trkpt lat="45.63962" lon="4.38304">
        <ele>601</ele>
      </trkpt>
      <trkpt lat="45.63922" lon="4.38313">
        <ele>605</ele>
      </trkpt>
      <trkpt lat="45.63903" lon="4.38317">
        <ele>605</ele>
      </trkpt>
    </trkseg>
  </trk>
</gpx>